White Rock, Texas
Current Conditions -  °F | °C
As of 4:15 PM on Saturday 25 Oct 2014 (Local Time) from KOCH Reporting Station
Clear Clear  
Wind Chill: 82°   Ceiling: Unl
Heat Index: 83°   Visibility: 10mi
Dew Point: 63°   Wind: 6mph
Humidity: 51%   Direction: 220°SW
Pressure: 30.1"   Gusts: NA
Location:  31.516°N, 94.1687°W
Report Text: KOCH 252115Z AUTO 22005KT 10SM CLR 28/17 A3010 RMK AO1
Loading
Personal Weather Stations






























Interactive Weather Map
Tropical Storm Tracking
New forecast layout! Learn more

10-Day Weather Forecast

Advertisements
Track Severe Weather on mobile